Time;durP1;ratioP1;P1;durP2;ratioP2;P2;SDS_P1;SDS_P2;PMS_P1;PMS_P2;Temp;Humidity;BMP_temperature;BMP_pressure;BME280_temperature;BME280_humidity;BME280_pressure;Samples;Min_cycle;Max_cycle;Signal;HPM_P1;HPM_P2
2022/07/30 00:00:15;;;;;;;;;;;;;;;17.33;63.53;101055.81;5086460;28;19912;-64
2022/07/30 00:02:40;;;;;;;;;;;;;;;17.35;63.79;101055.78;5086620;28;19987;-63
2022/07/30 00:05:06;;;;;;;;;;;;;;;17.38;63.83;101054.84;5086488;28;20374;-64
2022/07/30 00:07:31;;;;;;;;;;;;;;;17.41;63.81;101058.22;5086318;28;19912;-63
2022/07/30 00:09:57;;;;;;;;;;;;;;;17.44;63.85;101062.56;5086706;28;19916;-63
2022/07/30 00:12:22;;;;;;;;;;;;;;;17.45;63.57;101057.28;5086255;28;19916;-64
2022/07/30 00:14:47;;;;;;;;;;;;;;;17.46;63.63;101055.47;5086193;28;19914;-64
2022/07/30 00:17:13;;;;;;;;;;;;;;;17.42;63.67;101054.72;5086239;28;19961;-63
2022/07/30 00:19:38;;;;;;;;;;;;;;;17.34;64.06;101057.56;5086157;28;19976;-63
2022/07/30 00:22:03;;;;;;;;;;;;;;;17.26;64.31;101056.03;5086242;28;19909;-63
2022/07/30 00:24:28;;;;;;;;;;;;;;;17.21;64.56;101053.53;5086349;28;19959;-63
2022/07/30 00:26:54;;;;;;;;;;;;;;;17.18;64.26;101058.84;5086080;28;19971;-63
2022/07/30 00:29:19;;;;;;;;;;;;;;;17.21;64.29;101056.16;5086239;28;19908;-64
2022/07/30 00:31:44;;;;;;;;;;;;;;;17.24;64.33;101057.84;5086070;28;19912;-64
2022/07/30 00:34:11;;;;;;;;;;;;;;;17.23;64.29;101059.59;5085931;28;19920;-64
2022/07/30 00:36:37;;;;;;;;;;;;;;;17.24;64.60;101055.22;5085120;28;19909;-64
2022/07/30 00:39:02;;;;;;;;;;;;;;;17.20;64.82;101054.44;5085474;28;19980;-64
2022/07/30 00:41:27;;;;;;;;;;;;;;;17.16;64.89;101047.53;5085411;28;19966;-64
2022/07/30 00:43:53;;;;;;;;;;;;;;;17.11;64.92;101052.06;5085711;28;19931;-63
2022/07/30 00:46:18;;;;;;;;;;;;;;;17.06;65.03;101044.28;5085216;28;19999;-63
2022/07/30 00:48:44;;;;;;;;;;;;;;;17.06;64.96;101049.50;5085629;28;19908;-64
2022/07/30 00:51:10;;;;;;;;;;;;;;;17.06;65.13;101047.72;5085693;28;19915;-64
2022/07/30 00:53:35;;;;;;;;;;;;;;;17.03;64.97;101039.94;5085903;28;19908;-64
2022/07/30 00:56:01;;;;;;;;;;;;;;;16.99;64.88;101040.94;5085502;28;19940;-63
2022/07/30 00:58:27;;;;;;;;;;;;;;;16.99;65.04;101038.31;5084279;28;20223;-63
2022/07/30 01:00:52;;;;;;;;;;;;;;;17.02;65.03;101032.97;5085727;28;19912;-64
2022/07/30 01:03:18;;;;;;;;;;;;;;;17.04;64.84;101036.44;5085466;28;19947;-63
2022/07/30 01:05:43;;;;;;;;;;;;;;;17.05;64.83;101037.28;5085673;28;19957;-64
2022/07/30 01:08:08;;;;;;;;;;;;;;;17.05;64.85;101040.78;5085794;28;19911;-64
2022/07/30 01:10:34;;;;;;;;;;;;;;;17.03;64.88;101045.19;5085515;28;19908;-63
2022/07/30 01:13:00;;;;;;;;;;;;;;;16.99;65.18;101038.31;5085559;28;19908;-63
2022/07/30 01:15:26;;;;;;;;;;;;;;;16.93;65.65;101038.47;5085646;28;19908;-63
2022/07/30 01:17:52;;;;;;;;;;;;;;;16.89;66.27;101052.53;5085351;28;19980;-63
2022/07/30 01:20:19;;;;;;;;;;;;;;;16.77;66.70;101046.72;5084266;28;19912;-63
2022/07/30 01:22:45;;;;;;;;;;;;;;;16.68;67.33;101041.66;5085340;28;19912;-63
2022/07/30 01:25:19;;;;;;;;;;;;;;;16.59;67.74;101056.75;5085296;28;19908;-64
2022/07/30 01:27:50;;;;;;;;;;;;;;;16.48;68.24;101046.47;5085417;28;19924;-63
2022/07/30 01:30:17;;;;;;;;;;;;;;;16.42;68.80;101053.63;5085325;28;19912;-63
2022/07/30 01:32:44;;;;;;;;;;;;;;;16.37;69.79;101055.50;5085142;28;19908;-63
2022/07/30 01:35:10;;;;;;;;;;;;;;;16.29;70.95;101047.81;5085199;28;19908;-63
2022/07/30 01:37:36;;;;;;;;;;;;;;;16.17;71.30;101054.16;5085161;28;19920;-63
2022/07/30 01:40:03;;;;;;;;;;;;;;;16.06;71.88;101050.03;5085351;28;19962;-63
2022/07/30 01:42:28;;;;;;;;;;;;;;;16.02;72.31;101053.63;5085352;28;19908;-63
2022/07/30 01:44:55;;;;;;;;;;;;;;;15.93;72.85;101051.13;5085210;28;19999;-63
2022/07/30 01:47:21;;;;;;;;;;;;;;;15.82;73.30;101054.84;5085039;28;20147;-63
2022/07/30 01:49:48;;;;;;;;;;;;;;;15.73;73.83;101048.03;5084825;28;19957;-63
2022/07/30 01:52:14;;;;;;;;;;;;;;;15.61;74.13;101050.88;5084900;28;19981;-63
2022/07/30 01:54:40;;;;;;;;;;;;;;;15.55;74.35;101049.25;5085050;28;19908;-63
2022/07/30 01:57:06;;;;;;;;;;;;;;;15.46;74.38;101057.28;5087285;28;19912;-63
2022/07/30 01:59:33;;;;;;;;;;;;;;;15.44;75.01;101053.81;5089458;28;19991;-63
2022/07/30 02:01:59;;;;;;;;;;;;;;;15.37;75.27;101045.22;5088745;28;19913;-63
2022/07/30 02:04:24;;;;;;;;;;;;;;;15.32;75.77;101052.31;5088856;28;19915;-63
2022/07/30 02:07:01;;;;;;;;;;;;;;;15.28;76.04;101055.84;5088649;28;19908;-63
2022/07/30 02:09:48;;;;;;;;;;;;;;;15.23;76.19;101050.69;5089146;28;19974;-63
2022/07/30 02:12:27;;;;;;;;;;;;;;;15.17;76.32;101045.59;5088919;28;19908;-63
2022/07/30 02:14:54;;;;;;;;;;;;;;;15.11;76.72;101044.78;5088409;28;19908;-63
2022/07/30 02:17:30;;;;;;;;;;;;;;;15.07;76.71;101052.72;5088638;28;19916;-63
2022/07/30 02:19:56;;;;;;;;;;;;;;;15.04;76.96;101050.16;5088574;28;19912;-63
2022/07/30 02:22:22;;;;;;;;;;;;;;;15.02;77.05;101046.69;5120907;28;19954;-63
2022/07/30 02:24:48;;;;;;;;;;;;;;;14.95;77.06;101044.19;5088649;28;19964;-63
2022/07/30 02:27:23;;;;;;;;;;;;;;;14.92;77.13;101039.00;5088394;28;19908;-63
2022/07/30 02:29:49;;;;;;;;;;;;;;;14.90;76.98;101034.72;5088231;28;19908;-63
2022/07/30 02:32:16;;;;;;;;;;;;;;;14.87;77.09;101043.47;5088342;28;19919;-63
2022/07/30 02:34:43;;;;;;;;;;;;;;;14.84;77.17;101043.53;5088638;28;19914;-63
2022/07/30 02:37:11;;;;;;;;;;;;;;;14.81;77.19;101031.34;5088235;28;20394;-63
2022/07/30 02:39:37;;;;;;;;;;;;;;;14.80;77.16;101031.38;5088230;28;20177;-63
2022/07/30 02:42:03;;;;;;;;;;;;;;;14.81;77.13;101038.34;5088147;28;19916;-63
2022/07/30 02:44:29;;;;;;;;;;;;;;;14.77;77.31;101041.84;5088321;28;19908;-63
2022/07/30 02:46:56;;;;;;;;;;;;;;;14.73;77.48;101041.03;5087876;28;19912;-63
2022/07/30 02:49:23;;;;;;;;;;;;;;;14.70;77.45;101043.69;5088245;28;19908;-63
2022/07/30 02:51:48;;;;;;;;;;;;;;;14.70;77.50;101043.69;5087851;28;19912;-63
2022/07/30 02:54:16;;;;;;;;;;;;;;;14.66;77.36;101042.00;5087755;28;19937;-63
2022/07/30 02:56:42;;;;;;;;;;;;;;;14.65;77.28;101042.91;5087597;28;19928;-63
2022/07/30 02:59:09;;;;;;;;;;;;;;;14.62;77.29;101042.06;5087588;28;19908;-63
2022/07/30 03:01:34;;;;;;;;;;;;;;;14.61;77.44;101044.69;5087594;28;19935;-63
2022/07/30 03:04:00;;;;;;;;;;;;;;;14.59;77.53;101043.84;5087832;28;19908;-63
2022/07/30 03:06:26;;;;;;;;;;;;;;;14.58;77.45;101036.91;5087768;28;19927;-63
2022/07/30 03:08:52;;;;;;;;;;;;;;;14.60;77.53;101042.97;5087040;28;19916;-63
2022/07/30 03:11:18;;;;;;;;;;;;;;;14.58;77.59;101037.78;5087671;28;19915;-63
2022/07/30 03:13:43;;;;;;;;;;;;;;;14.58;77.58;101036.91;5087614;28;19987;-63
2022/07/30 03:16:09;;;;;;;;;;;;;;;14.60;77.42;101042.97;5087584;28;19908;-63
2022/07/30 03:18:36;;;;;;;;;;;;;;;14.66;77.20;101034.19;5087718;28;19912;-63
2022/07/30 03:21:02;;;;;;;;;;;;;;;14.73;77.20;101041.03;5087137;28;19912;-63
2022/07/30 03:23:30;;;;;;;;;;;;;;;14.84;77.17;101043.53;5087309;28;19904;-63
2022/07/30 03:25:58;;;;;;;;;;;;;;;14.96;76.81;101042.44;5087783;28;19970;-63
2022/07/30 03:28:24;;;;;;;;;;;;;;;15.05;76.52;101042.28;5087248;28;19915;-63
2022/07/30 03:30:51;;;;;;;;;;;;;;;15.10;75.96;101045.69;5087436;28;20323;-63
2022/07/30 03:33:17;;;;;;;;;;;;;;;15.08;75.46;101037.00;5087069;28;20352;-63
2022/07/30 03:35:42;;;;;;;;;;;;;;;15.11;75.45;101036.09;5087087;28;20318;-63
2022/07/30 03:38:14;;;;;;;;;;;;;;;15.22;75.52;101034.13;5086897;28;20392;-63
2022/07/30 03:40:44;;;;;;;;;;;;;;;15.34;75.28;101035.69;5087098;28;19913;-63
2022/07/30 03:43:11;;;;;;;;;;;;;;;15.49;74.98;101038.91;5086945;28;19908;-63
2022/07/30 03:45:37;;;;;;;;;;;;;;;15.63;74.72;101046.50;5087059;28;19915;-63
2022/07/30 03:48:03;;;;;;;;;;;;;;;15.85;74.38;101043.44;5086533;28;19908;-63
2022/07/30 03:50:28;;;;;;;;;;;;;;;16.03;73.73;101038.75;5087011;28;19931;-63
2022/07/30 03:52:54;;;;;;;;;;;;;;;16.18;72.84;101041.03;5086618;28;19908;-63
2022/07/30 03:55:20;;;;;;;;;;;;;;;16.35;72.69;101039.81;5086543;28;20363;-63
2022/07/30 03:57:46;;;;;;;;;;;;;;;16.58;71.93;101049.75;5086497;28;19954;-63
2022/07/30 04:00:12;;;;;;;;;;;;;;;16.77;71.27;101049.34;5086644;28;19923;-63
2022/07/30 04:02:41;;;;;;;;;;;;;;;17.02;71.36;101042.59;5086448;28;19915;-63
2022/07/30 04:05:07;;;;;;;;;;;;;;;17.31;69.75;101041.91;5086609;28;19908;-63
2022/07/30 04:07:32;;;;;;;;;;;;;;;17.48;68.00;101043.19;5086556;28;19908;-63
2022/07/30 04:09:57;;;;;;;;;;;;;;;17.53;67.89;101037.81;5086430;28;20276;-63
2022/07/30 04:12:23;;;;;;;;;;;;;;;17.69;67.44;101038.25;5086344;28;19916;-63
2022/07/30 04:14:48;;;;;;;;;;;;;;;17.87;66.88;101031.63;5086312;28;19908;-63
2022/07/30 04:17:20;;;;;;;;;;;;;;;18.03;66.39;101026.78;5086182;28;19976;-63
2022/07/30 04:19:47;;;;;;;;;;;;;;;18.19;65.20;101032.47;5086151;28;19951;-63
2022/07/30 04:22:15;;;;;;;;;;;;;;;18.27;64.91;101034.84;5086114;28;19939;-63
2022/07/30 04:24:40;;;;;;;;;;;;;;;18.47;64.38;101038.59;5086369;28;20025;-63
2022/07/30 04:27:06;;;;;;;;;;;;;;;18.66;62.84;101030.13;5085975;28;19908;-63
2022/07/30 04:29:31;;;;;;;;;;;;;;;18.70;61.98;101034.38;5086228;28;19976;-63
2022/07/30 04:31:56;;;;;;;;;;;;;;;18.75;61.48;101029.84;5085841;28;20364;-64
2022/07/30 04:34:22;;;;;;;;;;;;;;;18.80;60.90;101035.78;5086352;28;20279;-63
2022/07/30 04:36:47;;;;;;;;;;;;;;;18.80;60.42;101022.66;5085694;28;19908;-64
2022/07/30 04:39:13;;;;;;;;;;;;;;;18.90;59.22;101030.22;5086151;28;19908;-64
2022/07/30 04:41:38;;;;;;;;;;;;;;;18.91;58.32;101027.53;5085921;28;19913;-63
2022/07/30 04:44:03;;;;;;;;;;;;;;;18.91;59.40;101026.69;5085528;28;19916;-64
2022/07/30 04:46:29;;;;;;;;;;;;;;;19.38;59.04;101019.84;5085647;28;20408;-64
2022/07/30 04:48:54;;;;;;;;;;;;;;;19.71;58.98;101029.22;5085576;28;20391;-64
2022/07/30 04:51:27;;;;;;;;;;;;;;;20.03;56.91;101024.56;5085229;28;19995;-64
2022/07/30 04:53:53;;;;;;;;;;;;;;;20.26;56.29;101023.66;5085494;28;20398;-64
2022/07/30 04:56:19;;;;;;;;;;;;;;;20.31;53.98;101026.97;5085520;28;19931;-64
2022/07/30 04:58:45;;;;;;;;;;;;;;;20.16;54.35;101019.69;5085617;28;19908;-64
2022/07/30 05:01:11;;;;;;;;;;;;;;;20.28;54.60;101021.81;5085806;28;19913;-64
2022/07/30 05:03:37;;;;;;;;;;;;;;;20.31;53.12;101024.34;5085607;28;19999;-64
2022/07/30 05:06:04;;;;;;;;;;;;;;;20.22;53.58;101031.75;5085454;28;19930;-64
2022/07/30 05:08:29;;;;;;;;;;;;;;;20.36;53.28;101037.34;5085697;28;19904;-63
2022/07/30 05:10:54;;;;;;;;;;;;;;;20.30;52.87;101032.31;5085872;28;19919;-64
2022/07/30 05:13:20;;;;;;;;;;;;;;;20.30;53.00;101027.88;5085921;28;19912;-64
2022/07/30 05:15:45;;;;;;;;;;;;;;;20.60;52.75;101032.00;5085473;28;19920;-64
2022/07/30 05:18:11;;;;;;;;;;;;;;;20.62;52.53;101031.94;5085639;28;19979;-64
2022/07/30 05:20:36;;;;;;;;;;;;;;;20.48;51.84;101035.13;5085616;28;19913;-64
2022/07/30 05:23:01;;;;;;;;;;;;;;;20.47;52.64;101038.66;5085304;28;20379;-64
2022/07/30 05:25:27;;;;;;;;;;;;;;;20.40;52.56;101030.16;5085284;28;19916;-64
2022/07/30 05:27:52;;;;;;;;;;;;;;;20.55;52.57;101037.47;5085609;28;19909;-64
2022/07/30 05:30:18;;;;;;;;;;;;;;;20.54;52.26;101040.16;5085482;28;20343;-64
2022/07/30 05:32:43;;;;;;;;;;;;;;;20.58;52.55;101035.59;5088632;28;19959;-64
2022/07/30 05:35:08;;;;;;;;;;;;;;;20.92;52.85;101024.56;5089521;28;19908;-64
2022/07/30 05:37:33;;;;;;;;;;;;;;;21.40;51.44;101026.91;5089264;28;19946;-64
2022/07/30 05:39:59;;;;;;;;;;;;;;;21.74;51.80;101024.50;5089481;28;19908;-64
2022/07/30 05:42:24;;;;;;;;;;;;;;;22.26;50.84;101023.03;5089287;28;20388;-64
2022/07/30 05:44:49;;;;;;;;;;;;;;;22.41;48.81;101031.16;5089311;28;20323;-64
2022/07/30 05:47:16;;;;;;;;;;;;;;;22.31;49.57;101027.25;5089110;28;19958;-64
2022/07/30 05:49:42;;;;;;;;;;;;;;;22.51;50.34;101024.47;5089105;28;19908;-64
2022/07/30 05:52:07;;;;;;;;;;;;;;;22.79;48.68;101030.22;5088905;28;20261;-64
2022/07/30 05:54:33;;;;;;;;;;;;;;;22.93;49.17;101031.31;5089127;28;19909;-64
2022/07/30 05:56:58;;;;;;;;;;;;;;;23.52;49.27;101029.16;5088983;28;19916;-65
2022/07/30 05:59:23;;;;;;;;;;;;;;;23.88;46.75;101026.41;5088948;28;19908;-64
2022/07/30 06:01:48;;;;;;;;;;;;;;;23.87;46.70;101032.63;5088929;28;19912;-65
2022/07/30 06:04:14;;;;;;;;;;;;;;;23.94;46.72;101022.53;5089071;28;19952;-64
2022/07/30 06:06:39;;;;;;;;;;;;;;;24.07;45.81;101028.88;5088754;28;19990;-64
2022/07/30 06:09:04;;;;;;;;;;;;;;;24.23;46.98;101028.06;5088725;28;19954;-64
2022/07/30 06:11:29;;;;;;;;;;;;;;;24.97;46.88;101030.03;5089111;28;19913;-65
2022/07/30 06:13:55;;;;;;;;;;;;;;;25.11;42.81;101027.41;5088707;28;20364;-65
2022/07/30 06:16:20;;;;;;;;;;;;;;;24.53;43.66;101027.22;5088852;28;20372;-64
2022/07/30 06:18:45;;;;;;;;;;;;;;;24.06;43.95;101021.84;5088850;28;20326;-64
2022/07/30 06:21:10;;;;;;;;;;;;;;;23.67;45.02;101021.34;5088067;28;20283;-64
2022/07/30 06:23:35;;;;;;;;;;;;;;;23.89;45.40;101014.84;5088791;28;19969;-64
2022/07/30 06:26:01;;;;;;;;;;;;;;;23.75;44.07;101019.09;5088831;28;19908;-64
2022/07/30 06:28:26;;;;;;;;;;;;;;;23.47;45.08;101025.03;5088427;28;19920;-64
2022/07/30 06:30:51;;;;;;;;;;;;;;;23.39;46.22;101012.19;5088686;28;19908;-64
2022/07/30 06:33:16;;;;;;;;;;;;;;;24.10;45.30;101017.25;5088649;28;19912;-65
2022/07/30 06:35:42;;;;;;;;;;;;;;;24.29;45.04;101016.22;5088356;28;19935;-65
2022/07/30 06:38:07;;;;;;;;;;;;;;;24.49;43.96;101018.59;5087124;28;19908;-65
2022/07/30 06:40:32;;;;;;;;;;;;;;;24.44;44.59;101019.81;5088263;28;19912;-65
2022/07/30 06:42:58;;;;;;;;;;;;;;;24.51;43.57;101013.19;5087058;28;19915;-64
2022/07/30 06:45:23;;;;;;;;;;;;;;;24.29;43.33;101011.78;5088244;28;19923;-64
2022/07/30 06:47:48;;;;;;;;;;;;;;;23.76;43.48;101009.34;5088400;28;19909;-65
2022/07/30 06:50:14;;;;;;;;;;;;;;;23.49;44.04;101016.09;5088279;28;19908;-64
2022/07/30 06:52:39;;;;;;;;;;;;;;;23.41;44.41;101010.34;5088011;28;19916;-64
2022/07/30 06:55:05;;;;;;;;;;;;;;;23.48;44.46;101013.50;5087663;28;19917;-64
2022/07/30 06:57:30;;;;;;;;;;;;;;;23.50;44.09;101004.53;5087874;28;19908;-64
2022/07/30 06:59:55;;;;;;;;;;;;;;;23.39;43.96;101006.91;5087855;28;19912;-65
2022/07/30 07:02:20;;;;;;;;;;;;;;;23.11;44.88;100998.59;5087927;28;19908;-64
2022/07/30 07:04:46;;;;;;;;;;;;;;;22.84;45.20;101000.88;5087875;28;19992;-64
2022/07/30 07:07:11;;;;;;;;;;;;;;;22.79;45.57;101001.13;5087475;28;19915;-65
2022/07/30 07:09:36;;;;;;;;;;;;;;;22.80;44.85;101008.09;5087721;28;19908;-64
2022/07/30 07:12:02;;;;;;;;;;;;;;;22.70;44.74;101002.41;5087628;28;19916;-64
2022/07/30 07:14:27;;;;;;;;;;;;;;;22.76;44.50;101004.75;5087932;28;20222;-64
2022/07/30 07:16:52;;;;;;;;;;;;;;;22.89;44.56;101010.28;5087436;28;19908;-64
2022/07/30 07:19:18;;;;;;;;;;;;;;;22.98;44.20;101006.31;5087655;28;19908;-65
2022/07/30 07:21:43;;;;;;;;;;;;;;;23.12;43.89;100995.00;5087217;28;19912;-64
2022/07/30 07:24:08;;;;;;;;;;;;;;;23.18;43.28;101001.75;5087620;28;20320;-64
2022/07/30 07:26:33;;;;;;;;;;;;;;;23.25;42.99;101005.81;5087605;28;20288;-64
2022/07/30 07:28:59;;;;;;;;;;;;;;;23.44;43.94;101004.88;5087845;28;19908;-64
2022/07/30 07:31:25;;;;;;;;;;;;;;;24.09;42.92;101003.13;5086002;28;19908;-65
2022/07/30 07:33:53;;;;;;;;;;;;;;;24.43;42.28;101003.03;5087431;28;19908;-64
2022/07/30 07:36:18;;;;;;;;;;;;;;;24.73;40.49;100993.34;5087215;28;19962;-64
2022/07/30 07:38:43;;;;;;;;;;;;;;;24.87;39.69;100996.03;5087625;28;19908;-65
2022/07/30 07:41:08;;;;;;;;;;;;;;;24.72;39.58;100995.16;5087156;28;20355;-64
2022/07/30 07:43:34;;;;;;;;;;;;;;;24.79;38.34;100985.03;5087073;28;20261;-65
2022/07/30 07:45:59;;;;;;;;;;;;;;;24.60;37.75;100988.75;5086878;28;20295;-65
2022/07/30 07:48:24;;;;;;;;;;;;;;;24.28;38.83;100988.00;5086932;28;20338;-65
2022/07/30 07:50:50;;;;;;;;;;;;;;;24.26;39.47;100991.59;5086906;28;19909;-64
2022/07/30 07:53:15;;;;;;;;;;;;;;;24.04;38.43;100988.41;5086897;28;19913;-64
2022/07/30 07:55:40;;;;;;;;;;;;;;;23.84;39.09;100990.38;5086623;28;19960;-65
2022/07/30 07:58:05;;;;;;;;;;;;;;;24.11;39.23;100997.72;5086807;28;19967;-65
2022/07/30 08:00:31;;;;;;;;;;;;;;;24.41;39.39;100982.84;5086878;28;20415;-66
2022/07/30 08:02:56;;;;;;;;;;;;;;;25.06;38.45;100979.03;5086407;28;19974;-64
2022/07/30 08:05:21;;;;;;;;;;;;;;;25.37;37.76;100973.59;5086868;28;19909;-65
2022/07/30 08:07:47;;;;;;;;;;;;;;;25.45;37.63;100981.97;5086434;28;19908;-65
2022/07/30 08:10:14;;;;;;;;;;;;;;;26.08;37.49;100980.72;5086656;28;19916;-65
2022/07/30 08:12:40;;;;;;;;;;;;;;;26.90;37.29;100976.25;5086529;28;19997;-65
2022/07/30 08:15:05;;;;;;;;;;;;;;;27.83;36.48;100982.22;5086372;28;19912;-65
2022/07/30 08:17:30;;;;;;;;;;;;;;;28.04;35.06;100976.28;5086042;28;19908;-65
2022/07/30 08:19:59;;;;;;;;;;;;;;;27.86;34.09;100984.66;5086275;28;19970;-65
2022/07/30 08:22:25;;;;;;;;;;;;;;;27.18;34.56;100985.00;5086308;28;19908;-65
2022/07/30 08:24:50;;;;;;;;;;;;;;;26.87;35.38;100977.28;5086240;28;19958;-65
2022/07/30 08:27:16;;;;;;;;;;;;;;;27.15;36.36;100978.09;5086368;28;20007;-65
2022/07/30 08:29:41;;;;;;;;;;;;;;;27.60;35.66;100976.75;5086197;28;19908;-65
2022/07/30 08:32:06;;;;;;;;;;;;;;;28.33;34.79;100986.63;5086063;28;20312;-65
2022/07/30 08:34:32;;;;;;;;;;;;;;;28.61;35.00;100984.53;5086123;28;19959;-65
2022/07/30 08:36:57;;;;;;;;;;;;;;;29.03;34.02;100981.38;5086021;28;19908;-65
2022/07/30 08:39:22;;;;;;;;;;;;;;;29.26;32.97;100976.03;5086103;28;19909;-65
2022/07/30 08:41:48;;;;;;;;;;;;;;;29.72;32.48;100984.03;5085704;28;19912;-65
2022/07/30 08:44:15;;;;;;;;;;;;;;;30.13;31.42;100978.09;5086043;28;19955;-65
2022/07/30 08:46:41;;;;;;;;;;;;;;;30.27;31.60;100979.63;5086041;28;19912;-65
2022/07/30 08:49:07;;;;;;;;;;;;;;;30.21;30.41;100980.16;5085967;28;19908;-65
2022/07/30 08:51:33;;;;;;;;;;;;;;;30.34;30.52;100982.66;5085599;28;20268;-65
2022/07/30 08:53:59;;;;;;;;;;;;;;;30.38;30.58;100984.94;5085938;28;19931;-65
2022/07/30 08:56:25;;;;;;;;;;;;;;;30.52;30.84;100974.88;5117722;28;20411;-65
2022/07/30 08:58:51;;;;;;;;;;;;;;;30.97;30.34;100975.59;5085537;28;19988;-65
2022/07/30 09:01:16;;;;;;;;;;;;;;;30.90;28.61;100981.47;5085517;28;19912;-65
2022/07/30 09:03:41;;;;;;;;;;;;;;;30.72;29.33;100975.00;5085770;28;19909;-65
2022/07/30 09:06:06;;;;;;;;;;;;;;;30.64;29.37;100968.47;5084916;28;20439;-65
2022/07/30 09:08:32;;;;;;;;;;;;;;;30.88;29.65;100978.06;5085815;28;19915;-65
2022/07/30 09:10:57;;;;;;;;;;;;;;;30.65;28.63;100977.34;5085860;28;19908;-65
2022/07/30 09:13:22;;;;;;;;;;;;;;;30.31;29.37;100981.06;5085774;28;19964;-65
2022/07/30 09:15:48;;;;;;;;;;;;;;;30.25;29.99;100970.88;5085491;28;19915;-65
2022/07/30 09:18:24;;;;;;;;;;;;;;;30.63;30.65;100965.91;5085233;28;19908;-65
2022/07/30 09:20:49;;;;;;;;;;;;;;;31.21;30.52;100963.69;5085693;28;19912;-65
2022/07/30 09:23:15;;;;;;;;;;;;;;;31.69;29.78;100977.41;5085551;28;19912;-65
2022/07/30 09:25:42;;;;;;;;;;;;;;;31.88;29.11;100980.13;5085768;28;19940;-65
2022/07/30 09:28:08;;;;;;;;;;;;;;;32.07;28.67;100978.47;5085300;28;19909;-65
2022/07/30 09:30:53;;;;;;;;;;;;;;;31.83;28.84;100985.06;5085426;28;19908;-65
2022/07/30 09:33:30;;;;;;;;;;;;;;;31.57;29.65;100974.00;5085365;28;19962;-65
2022/07/30 09:35:55;;;;;;;;;;;;;;;31.33;29.69;100977.88;5085535;28;19923;-65
2022/07/30 09:38:22;;;;;;;;;;;;;;;31.45;29.66;100973.25;5085541;28;20189;-65
2022/07/30 09:40:51;;;;;;;;;;;;;;;31.41;29.61;100978.91;5085682;28;19955;-65
2022/07/30 09:43:16;;;;;;;;;;;;;;;31.25;29.49;100974.00;5085569;28;19908;-65
2022/07/30 09:45:52;;;;;;;;;;;;;;;31.52;29.86;100977.94;5085440;28;19923;-65
2022/07/30 09:48:21;;;;;;;;;;;;;;;31.66;29.36;100984.75;5085243;28;19938;-65
2022/07/30 09:50:48;;;;;;;;;;;;;;;32.13;29.26;100982.41;5085243;28;19919;-65
2022/07/30 09:53:14;;;;;;;;;;;;;;;32.43;28.84;100985.09;5085338;28;19909;-64
2022/07/30 09:55:39;;;;;;;;;;;;;;;32.23;28.38;100977.91;5085106;28;19917;-65
2022/07/30 09:58:04;;;;;;;;;;;;;;;32.22;28.50;100978.06;5085130;28;19909;-65
2022/07/30 10:00:31;;;;;;;;;;;;;;;32.18;28.36;100977.47;5085145;28;19935;-64
2022/07/30 10:02:58;;;;;;;;;;;;;;;32.20;28.28;100977.34;5085224;28;19909;-64
2022/07/30 10:05:24;;;;;;;;;;;;;;;32.41;27.79;100974.50;5085133;28;19916;-64
2022/07/30 10:07:51;;;;;;;;;;;;;;;32.71;27.86;100982.53;5084794;28;19951;-64
2022/07/30 10:10:17;;;;;;;;;;;;;;;32.67;27.18;100973.06;5084927;28;20430;-64
2022/07/30 10:12:44;;;;;;;;;;;;;;;32.50;26.78;100970.94;5085183;28;19954;-64
2022/07/30 10:15:10;;;;;;;;;;;;;;;32.47;27.14;100976.59;5084780;28;19908;-64
2022/07/30 10:17:37;;;;;;;;;;;;;;;32.23;26.77;100974.38;5086126;28;19912;-64
2022/07/30 10:20:03;;;;;;;;;;;;;;;31.86;27.20;100976.72;5088891;28;19938;-64
2022/07/30 10:22:28;;;;;;;;;;;;;;;31.50;27.87;100973.69;5088717;28;19908;-64
2022/07/30 10:24:54;;;;;;;;;;;;;;;31.27;28.32;100969.38;5088442;28;19908;-64
2022/07/30 10:27:21;;;;;;;;;;;;;;;31.37;27.46;100963.19;5088498;28;19922;-64
2022/07/30 10:29:46;;;;;;;;;;;;;;;31.41;27.80;100965.47;5088455;28;20423;-64
2022/07/30 10:32:12;;;;;;;;;;;;;;;31.50;27.92;100965.66;5088106;28;19919;-64
2022/07/30 10:34:37;;;;;;;;;;;;;;;31.49;27.50;100955.88;5087024;28;19909;-64
2022/07/30 10:37:04;;;;;;;;;;;;;;;31.72;27.58;100955.66;5088337;28;19975;-64
2022/07/30 10:39:34;;;;;;;;;;;;;;;31.82;27.08;100972.63;5088351;28;19935;-64
2022/07/30 10:42:02;;;;;;;;;;;;;;;31.76;26.66;100962.44;5088279;28;19913;-64
2022/07/30 10:44:37;;;;;;;;;;;;;;;31.76;26.58;100962.44;5088127;28;20287;-64
2022/07/30 10:47:05;;;;;;;;;;;;;;;31.76;27.20;100967.81;5088234;28;19908;-64
2022/07/30 10:49:30;;;;;;;;;;;;;;;31.86;26.41;100963.31;5088031;28;19912;-64
2022/07/30 10:51:56;;;;;;;;;;;;;;;31.74;26.47;100962.56;5088014;28;19917;-64
2022/07/30 10:54:33;;;;;;;;;;;;;;;31.53;25.61;100960.00;5087760;28;19916;-64
2022/07/30 10:57:10;;;;;;;;;;;;;;;31.19;26.08;100947.75;5088023;28;19976;-64
2022/07/30 10:59:59;;;;;;;;;;;;;;;31.02;26.72;100951.91;5087993;28;19979;-64
2022/07/30 11:02:26;;;;;;;;;;;;;;;31.05;26.03;100959.69;5087845;28;19950;-65
2022/07/30 11:05:10;;;;;;;;;;;;;;;30.38;26.88;100952.81;5087877;28;19908;-63
2022/07/30 11:07:35;;;;;;;;;;;;;;;29.58;27.54;100947.72;5086189;28;19931;-63
2022/07/30 11:10:00;;;;;;;;;;;;;;;28.83;28.33;100948.16;5087864;28;19912;-64
2022/07/30 11:12:41;;;;;;;;;;;;;;;28.20;29.57;100955.50;5087826;28;19912;-63
2022/07/30 11:15:11;;;;;;;;;;;;;;;27.85;30.23;100948.31;5087677;28;19944;-63
2022/07/30 11:17:55;;;;;;;;;;;;;;;27.37;30.73;100949.91;5087691;28;19912;-63
2022/07/30 11:20:20;;;;;;;;;;;;;;;26.93;31.55;100944.94;5087300;28;19920;-63
2022/07/30 11:22:48;;;;;;;;;;;;;;;26.52;32.42;100953.97;5087356;28;19912;-63
2022/07/30 11:25:25;;;;;;;;;;;;;;;26.36;32.23;100952.31;5087458;28;19947;-63
2022/07/30 11:27:51;;;;;;;;;;;;;;;25.86;32.62;100942.25;5087598;28;19908;-63
2022/07/30 11:30:20;;;;;;;;;;;;;;;25.44;33.33;100939.53;5086823;28;20313;-63
2022/07/30 11:32:47;;;;;;;;;;;;;;;25.07;34.14;100940.03;5087442;28;19908;-63
2022/07/30 11:35:29;;;;;;;;;;;;;;;24.87;34.55;100942.09;5086101;28;19972;-63
2022/07/30 11:38:00;;;;;;;;;;;;;;;24.55;34.32;100940.44;5087172;28;19930;-63
2022/07/30 11:40:26;;;;;;;;;;;;;;;24.25;35.11;100941.25;5086942;28;19917;-63
2022/07/30 11:43:12;;;;;;;;;;;;;;;24.04;36.02;100952.16;5086989;28;20047;-63
2022/07/30 11:45:37;;;;;;;;;;;;;;;23.90;35.81;100939.66;5086933;28;19915;-63
2022/07/30 11:48:08;;;;;;;;;;;;;;;23.70;35.88;100943.44;5086968;28;19908;-63
2022/07/30 11:50:33;;;;;;;;;;;;;;;23.45;36.17;100937.69;5087224;28;19928;-63
2022/07/30 11:53:02;;;;;;;;;;;;;;;23.28;37.52;100935.94;5086368;28;19908;-64
2022/07/30 11:55:50;;;;;;;;;;;;;;;23.21;38.02;100929.25;5086474;28;19926;-63
2022/07/30 11:58:23;;;;;;;;;;;;;;;23.25;38.58;100928.16;5086668;28;19908;-63
2022/07/30 12:00:49;;;;;;;;;;;;;;;23.19;39.10;100926.69;5086637;28;19938;-64
2022/07/30 12:03:16;;;;;;;;;;;;;;;23.13;39.37;100927.88;5086947;28;20380;-64
2022/07/30 12:05:41;;;;;;;;;;;;;;;23.18;39.53;100930.25;5086741;28;20363;-63
2022/07/30 12:08:07;;;;;;;;;;;;;;;23.10;39.45;100930.66;5086719;28;19914;-63
2022/07/30 12:10:34;;;;;;;;;;;;;;;23.07;39.48;100933.47;5086241;28;20375;-63
2022/07/30 12:13:07;;;;;;;;;;;;;;;23.10;38.73;100937.78;5086631;28;20277;-63
2022/07/30 12:15:33;;;;;;;;;;;;;;;23.10;38.15;100935.13;5086446;28;19912;-64
2022/07/30 12:18:00;;;;;;;;;;;;;;;23.05;37.25;100938.03;5086293;28;19908;-63
2022/07/30 12:20:25;;;;;;;;;;;;;;;22.97;36.87;100927.81;5086202;28;20295;-63
2022/07/30 12:22:51;;;;;;;;;;;;;;;22.90;36.16;100926.44;5084810;28;19968;-63
2022/07/30 12:25:16;;;;;;;;;;;;;;;22.89;35.11;100919.44;5085965;28;19936;-63
2022/07/30 12:27:46;;;;;;;;;;;;;;;22.87;34.86;100919.53;5086058;28;20023;-63
2022/07/30 12:30:12;;;;;;;;;;;;;;;22.94;34.14;100921.84;5086221;28;19908;-63
2022/07/30 12:32:37;;;;;;;;;;;;;;;22.89;33.92;100914.16;5086406;28;19908;-63